Time;durP1;ratioP1;P1;durP2;ratioP2;P2;SDS_P1;SDS_P2;PMS_P1;PMS_P2;Temp;Humidity;BMP_temperature;BMP_pressure;BME280_temperature;BME280_humidity;BME280_pressure;Samples;Min_cycle;Max_cycle;Signal;HPM_P1;HPM_P2
2022/10/28 00:01:54;;;;;;;17.95;7.38;;;;;;;19.55;68.88;101766.16;5009695;28;20030;-45
2022/10/28 00:04:19;;;;;;;13.68;7.43;;;;;;;19.30;69.70;101768.09;5011224;28;20052;-47
2022/10/28 00:06:44;;;;;;;13.73;6.95;;;;;;;19.36;69.24;101768.94;5011640;28;20125;-42
2022/10/28 00:09:10;;;;;;;14.60;7.25;;;;;;;19.19;69.80;101765.56;5011986;28;20026;-45
2022/10/28 00:11:35;;;;;;;13.27;7.00;;;;;;;19.29;69.70;101756.66;5011130;28;20146;-43
2022/10/28 00:14:04;;;;;;;13.30;6.82;;;;;;;19.40;69.16;101756.53;5014871;28;20030;-43
2022/10/28 00:16:32;;;;;;;12.23;7.10;;;;;;;19.33;69.25;101754.88;5011846;28;20030;-43
2022/10/28 00:18:59;;;;;;;12.38;7.05;;;;;;;19.30;69.24;101747.84;5011458;28;20030;-42
2022/10/28 00:21:30;;;;;;;12.13;7.05;;;;;;;19.23;69.75;101750.53;5010580;28;20053;-43
2022/10/28 00:23:55;;;;;;;14.32;7.47;;;;;;;19.41;68.92;101753.91;5010449;28;20478;-44
2022/10/28 00:26:29;;;;;;;15.40;7.32;;;;;;;19.11;69.60;101745.34;5010430;28;20040;-42
2022/10/28 00:28:57;;;;;;;14.05;7.60;;;;;;;19.12;69.77;101752.38;5010836;28;20084;-44
2022/10/28 00:31:25;;;;;;;14.85;7.38;;;;;;;19.00;70.56;101754.25;5010009;28;20025;-43
2022/10/28 00:33:51;;;;;;;13.02;7.20;;;;;;;19.24;69.43;101760.22;5010448;28;20041;-44
2022/10/28 00:36:24;;;;;;;20.42;7.63;;;;;;;18.96;70.03;101756.94;5010127;28;20437;-45
2022/10/28 00:38:51;;;;;;;13.20;7.30;;;;;;;18.85;70.79;101759.63;5009966;28;20497;-43
2022/10/28 00:41:20;;;;;;;13.93;7.55;;;;;;;18.93;70.29;101759.56;5009702;28;20422;-44
2022/10/28 00:43:52;;;;;;;13.68;7.18;;;;;;;18.95;70.26;101756.03;5010360;28;20026;-44
2022/10/28 00:46:40;;;;;;;15.43;7.53;;;;;;;19.05;69.90;101756.84;5009955;28;20485;-43
2022/10/28 00:49:17;;;;;;;14.68;7.53;;;;;;;19.15;69.49;101752.38;5010159;28;20034;-43
2022/10/28 00:51:45;;;;;;;11.50;7.15;;;;;;;18.91;70.14;101748.13;5009658;28;20021;-47
2022/10/28 00:54:12;;;;;;;13.88;7.00;;;;;;;19.20;69.19;101750.56;5010131;28;20037;-44
2022/10/28 00:56:42;;;;;;;12.35;7.18;;;;;;;18.95;69.95;101742.84;5010154;28;20021;-45
2022/10/28 00:59:15;;;;;;;15.93;7.22;;;;;;;19.04;69.41;101748.03;5010399;28;20022;-43
2022/10/28 01:01:40;;;;;;;13.63;7.50;;;;;;;19.02;69.72;101751.59;5009764;28;20033;-45
2022/10/28 01:04:07;;;;;;;17.13;7.65;;;;;;;19.00;69.81;101745.44;5009963;28;20030;-47
2022/10/28 01:06:32;;;;;;;14.13;7.90;;;;;;;18.74;70.60;101742.97;5009737;28;20557;-43
2022/10/28 01:08:57;;;;;;;13.60;7.20;;;;;;;18.85;70.34;101743.75;5009713;28;20109;-43
2022/10/28 01:11:52;;;;;;;15.40;7.70;;;;;;;18.92;69.99;101737.56;5009590;28;20034;-46
2022/10/28 01:14:47;;;;;;;14.70;7.97;;;;;;;18.72;70.72;101733.31;5011983;28;20033;-44
2022/10/28 01:17:31;;;;;;;15.07;7.60;;;;;;;18.84;70.42;101734.13;5014021;28;20531;-45
2022/10/28 01:20:31;;;;;;;16.20;7.28;;;;;;;18.98;69.71;101726.06;5013766;28;20033;-46
2022/10/28 01:23:08;;;;;;;15.52;7.65;;;;;;;18.74;70.54;101726.22;5013745;28;20022;-45
2022/10/28 01:26:11;;;;;;;16.05;7.68;;;;;;;18.78;70.36;101728.00;5014092;28;20052;-46
2022/10/28 01:28:51;;;;;;;16.40;7.40;;;;;;;18.82;70.46;101730.59;5012462;28;20030;-43
2022/10/28 01:31:26;;;;;;;17.00;7.57;;;;;;;18.79;70.31;101722.66;5012590;28;20059;-43
2022/10/28 01:33:54;;;;;;;14.80;7.25;;;;;;;18.86;69.89;101728.78;5013863;28;20033;-45
2022/10/28 01:36:39;;;;;;;13.73;7.18;;;;;;;18.86;70.12;101726.16;5013529;28;20029;-45
2022/10/28 01:39:23;;;;;;;12.70;7.53;;;;;;;18.58;70.96;101710.50;5012799;28;20532;-47
2022/10/28 01:42:08;;;;;;;13.18;7.28;;;;;;;18.50;71.70;101722.81;5012969;28;20613;-45
2022/10/28 01:45:13;;;;;;;16.65;7.22;;;;;;;18.59;71.36;101714.91;5013265;28;20034;-46
2022/10/28 01:47:46;;;;;;;12.60;6.55;;;;;;;18.62;70.74;101720.16;5013821;28;20449;-45
2022/10/28 01:50:23;;;;;;;14.00;7.20;;;;;;;18.59;70.74;101712.25;5013518;28;20120;-44
2022/10/28 01:52:52;;;;;;;13.70;7.18;;;;;;;18.57;71.05;101714.03;5013652;28;20030;-43
2022/10/28 01:55:22;;;;;;;17.05;7.25;;;;;;;18.44;71.38;101707.03;5013895;28;20072;-43
2022/10/28 01:57:50;;;;;;;14.82;6.75;;;;;;;18.66;70.97;101705.19;5013682;28;20514;-42
2022/10/28 02:00:16;;;;;;;16.80;7.35;;;;;;;18.38;71.69;101701.78;5013781;28;20042;-45
2022/10/28 02:02:42;;;;;;;15.70;7.28;;;;;;;18.35;71.95;101706.22;5013561;28;20018;-43
2022/10/28 02:05:47;;;;;;;16.10;7.18;;;;;;;18.50;71.25;101691.13;5014334;28;20474;-43
2022/10/28 02:08:32;;;;;;;14.68;7.05;;;;;;;18.54;70.94;101692.88;5013577;28;20556;-43
2022/10/28 02:11:26;;;;;;;11.75;6.85;;;;;;;18.42;71.29;101690.31;5012447;28;20030;-42
2022/10/28 02:14:10;;;;;;;;;;;;;;;18.66;70.45;101697.25;4982431;28;20223;-44
2022/10/28 02:17:12;;;;;;;13.95;6.70;;;;;;;18.59;70.34;101695.53;5012718;28;19916;-43
2022/10/28 02:19:47;;;;;;;14.43;6.97;;;;;;;18.76;69.68;101701.56;5013040;28;20029;-46
2022/10/28 02:22:20;;;;;;;14.63;6.93;;;;;;;18.80;69.22;101690.09;5012394;28;20079;-46
2022/10/28 02:24:46;;;;;;;16.93;7.37;;;;;;;18.48;70.48;101684.13;5012317;28;20025;-44
2022/10/28 02:27:33;;;;;;;12.68;7.20;;;;;;;18.72;69.86;101694.56;5012299;28;20295;-47
2022/10/28 02:30:17;;;;;;;11.98;7.25;;;;;;;18.61;70.13;101691.97;5011232;28;20367;-44
2022/10/28 02:32:56;;;;;;;13.45;6.88;;;;;;;18.50;70.56;101685.84;5012503;28;20017;-43
2022/10/28 02:35:29;;;;;;;11.70;6.50;;;;;;;18.73;69.91;101693.66;5012761;28;20038;-43
2022/10/28 02:37:59;;;;;;;15.07;7.10;;;;;;;18.63;70.11;101695.50;5012202;28;20029;-44
2022/10/28 02:40:28;;;;;;;12.85;6.88;;;;;;;18.69;69.90;101693.69;5012137;28;20257;-43
2022/10/28 02:42:59;;;;;;;13.38;6.80;;;;;;;18.70;69.78;101700.75;5012540;28;20021;-42
2022/10/28 02:45:30;;;;;;;15.48;6.65;;;;;;;18.74;69.22;101702.47;5012427;28;20397;-42
2022/10/28 02:48:05;;;;;;;11.55;6.70;;;;;;;18.56;69.59;101698.19;5012370;28;20033;-43
2022/10/28 02:50:35;;;;;;;14.35;7.22;;;;;;;18.60;69.87;101694.66;5011761;28;20121;-44
2022/10/28 02:53:05;;;;;;;12.73;7.50;;;;;;;18.67;69.42;101692.81;5012468;28;20478;-45
2022/10/28 02:55:40;;;;;;;12.85;6.95;;;;;;;18.61;69.55;101686.69;5013952;28;20076;-44
2022/10/28 02:58:06;;;;;;;13.57;7.20;;;;;;;18.45;70.07;101677.09;5016375;28;20022;-41
2022/10/28 03:00:31;;;;;;;16.65;7.30;;;;;;;18.39;70.53;101665.69;5030660;23;20029;-36
2022/10/28 03:02:57;;;;;;;12.30;7.22;;;;;;;18.32;71.37;101662.22;5012428;28;20030;-40
2022/10/28 03:05:22;;;;;;;13.65;6.85;;;;;;;18.52;70.56;101670.00;5013742;28;20197;-38
2022/10/28 03:07:47;;;;;;;13.55;7.32;;;;;;;18.41;70.27;101670.09;5013089;28;20379;-39
2022/10/28 03:10:13;;;;;;;14.65;6.80;;;;;;;18.61;69.43;101672.59;5013162;28;20073;-39
2022/10/28 03:12:38;;;;;;;14.50;6.90;;;;;;;18.59;69.20;101675.28;5011745;28;20101;-39
2022/10/28 03:15:03;;;;;;;16.33;7.03;;;;;;;18.54;69.13;101665.63;5011942;28;20026;-39
2022/10/28 03:17:29;;;;;;;12.68;6.50;;;;;;;18.50;69.01;101666.50;5011728;28;20033;-42
2022/10/28 03:19:54;;;;;;;14.15;6.82;;;;;;;18.42;69.10;101668.34;5011889;28;20470;-39
2022/10/28 03:22:19;;;;;;;13.98;6.68;;;;;;;18.39;69.32;101673.63;5011965;28;20046;-36
2022/10/28 03:24:45;;;;;;;12.25;6.40;;;;;;;18.37;69.50;101670.97;5011900;28;20033;-39
2022/10/28 03:27:10;;;;;;;18.23;7.30;;;;;;;18.25;69.97;101666.66;5011745;28;20025;-41
2022/10/28 03:29:35;;;;;;;13.43;6.50;;;;;;;18.32;69.77;101664.84;5012539;28;20293;-41
2022/10/28 03:32:01;;;;;;;13.63;6.35;;;;;;;18.33;69.69;101661.34;5011751;28;20097;-39
2022/10/28 03:34:26;;;;;;;13.73;6.82;;;;;;;18.28;70.24;101667.53;5012305;28;20026;-40
2022/10/28 03:36:51;;;;;;;12.10;6.30;;;;;;;18.33;70.29;101663.97;5011564;28;20513;-39
2022/10/28 03:39:17;;;;;;;15.68;6.68;;;;;;;18.33;70.18;101658.69;5012089;28;20022;-42
2022/10/28 03:41:42;;;;;;;14.50;6.57;;;;;;;18.31;70.37;101662.22;5011712;28;20508;-39
2022/10/28 03:44:07;;;;;;;13.15;6.10;;;;;;;18.33;70.57;101660.44;5011429;28;20030;-39
2022/10/28 03:46:33;;;;;;;12.73;6.00;;;;;;;18.36;70.35;101669.22;5012209;28;20654;-42
2022/10/28 03:48:58;;;;;;;12.27;6.05;;;;;;;18.38;70.26;101667.44;5013910;28;20502;-39
2022/10/28 03:51:23;;;;;;;15.10;6.28;;;;;;;18.40;70.30;101670.09;5014335;28;20069;-40
2022/10/28 03:53:48;;;;;;;14.55;6.32;;;;;;;18.34;70.53;101668.38;5013750;28;20028;-40
2022/10/28 03:56:14;;;;;;;14.13;6.03;;;;;;;18.43;70.12;101668.28;5015976;28;20109;-39
2022/10/28 03:58:39;;;;;;;14.18;5.75;;;;;;;18.40;70.22;101659.53;5016487;28;20038;-39
2022/10/28 04:01:04;;;;;;;12.75;5.50;;;;;;;18.43;69.96;101663.00;5016054;28;20045;-39
2022/10/28 04:03:30;;;;;;;12.93;5.90;;;;;;;18.43;69.93;101649.81;5013133;28;20367;-42
2022/10/28 04:05:55;;;;;;;9.60;5.30;;;;;;;18.44;69.85;101651.56;5011807;28;20516;-41
2022/10/28 04:08:21;;;;;;;11.82;5.82;;;;;;;18.43;69.96;101649.81;5012821;28;20041;-40
2022/10/28 04:10:47;;;;;;;14.13;5.70;;;;;;;18.44;69.95;101651.56;5015456;28;20039;-40
2022/10/28 04:13:12;;;;;;;14.45;5.78;;;;;;;18.40;70.19;101647.22;5016023;28;20032;-39
2022/10/28 04:15:38;;;;;;;13.05;5.93;;;;;;;18.33;70.45;101653.41;5015551;28;20026;-38
2022/10/28 04:18:04;;;;;;;11.98;6.10;;;;;;;18.35;70.33;101653.41;5011862;28;20052;-41
2022/10/28 04:20:30;;;;;;;13.25;5.80;;;;;;;18.37;70.15;101648.97;5010404;28;20049;-40
2022/10/28 04:22:55;;;;;;;12.50;5.70;;;;;;;18.39;70.24;101650.72;5011244;28;20490;-40
2022/10/28 04:25:21;;;;;;;15.00;6.20;;;;;;;18.32;70.59;101643.72;5010860;28;20029;-41
2022/10/28 04:27:47;;;;;;;12.13;5.88;;;;;;;18.39;70.10;101636.66;5010903;28;20034;-42
2022/10/28 04:30:13;;;;;;;13.73;5.80;;;;;;;18.38;70.28;101641.06;5010678;28;20033;-40
2022/10/28 04:32:40;;;;;;;11.02;5.70;;;;;;;18.39;70.10;101650.72;5010596;28;20437;-39
2022/10/28 04:35:05;;;;;;;11.35;5.28;;;;;;;18.40;70.23;101643.69;5011009;28;20080;-39
2022/10/28 04:37:30;;;;;;;11.25;5.32;;;;;;;18.37;70.01;101641.94;5010715;28;20029;-40
2022/10/28 04:39:56;;;;;;;13.18;5.78;;;;;;;18.38;70.13;101645.44;5010862;28;20022;-38
2022/10/28 04:42:24;;;;;;;13.75;5.90;;;;;;;18.38;69.95;101653.38;5010388;28;20099;-38
2022/10/28 04:44:50;;;;;;;11.73;5.80;;;;;;;18.37;70.32;101651.63;5011233;28;20080;-41
2022/10/28 04:47:16;;;;;;;15.93;5.88;;;;;;;18.34;70.71;101660.44;5012321;28;20022;-42
2022/10/28 04:49:41;;;;;;;14.35;6.35;;;;;;;18.36;70.67;101661.28;5012028;28;20370;-39
2022/10/28 04:52:07;;;;;;;14.85;5.53;;;;;;;18.41;70.41;101664.81;5010485;28;20075;-39
2022/10/28 04:54:32;;;;;;;12.93;5.82;;;;;;;18.45;70.55;101663.00;5010501;28;20029;-38
2022/10/28 04:56:57;;;;;;;13.20;5.60;;;;;;;18.45;69.87;101653.34;5010833;28;20079;-40
2022/10/28 04:59:22;;;;;;;11.15;5.22;;;;;;;18.44;70.25;101645.41;5010850;28;20022;-40
2022/10/28 05:01:48;;;;;;;11.45;5.40;;;;;;;18.46;69.86;101639.25;5011619;28;20041;-40
2022/10/28 05:04:13;;;;;;;12.73;5.28;;;;;;;18.40;69.96;101636.66;5010671;28;20109;-39
2022/10/28 05:06:38;;;;;;;13.55;5.35;;;;;;;18.42;70.05;101636.66;5010932;28;20043;-39
2022/10/28 05:09:04;;;;;;;13.00;5.80;;;;;;;18.40;70.16;101641.06;5011250;28;20390;-40
2022/10/28 05:11:29;;;;;;;11.55;5.07;;;;;;;18.44;70.16;101638.38;5011199;28;20437;-39
2022/10/28 05:13:54;;;;;;;11.90;5.45;;;;;;;18.44;69.88;101633.09;5014756;28;20062;-41
2022/10/28 05:16:20;;;;;;;13.57;5.32;;;;;;;18.40;69.97;101635.78;5013026;28;20084;-39
2022/10/28 05:18:45;;;;;;;10.02;4.80;;;;;;;18.42;70.17;101634.84;5011154;28;20022;-39
2022/10/28 05:21:10;;;;;;;11.18;5.13;;;;;;;18.46;70.22;101633.09;5010469;28;20032;-39
2022/10/28 05:23:36;;;;;;;13.27;5.30;;;;;;;18.42;70.32;101634.00;5010861;28;20022;-39
2022/10/28 05:26:01;;;;;;;11.05;4.72;;;;;;;18.51;70.34;101628.66;5010148;28;20114;-41
2022/10/28 05:28:26;;;;;;;13.18;4.95;;;;;;;18.50;70.09;101640.97;5010167;28;20030;-39
2022/10/28 05:30:52;;;;;;;10.95;4.93;;;;;;;18.54;70.01;101641.84;5010208;28;20061;-37
2022/10/28 05:33:17;;;;;;;14.50;5.22;;;;;;;18.52;70.15;101643.59;5010503;28;20025;-39
2022/10/28 05:35:43;;;;;;;12.43;5.10;;;;;;;18.50;70.27;101643.63;5010247;28;20101;-42
2022/10/28 05:38:08;;;;;;;12.75;5.10;;;;;;;18.60;69.79;101632.13;5010386;28;20084;-39
2022/10/28 05:40:33;;;;;;;14.18;5.07;;;;;;;18.68;69.48;101629.44;5010387;28;20558;-42
2022/10/28 05:43:00;;;;;;;11.90;4.93;;;;;;;18.63;69.24;101632.09;5011212;28;20044;-38
2022/10/28 05:45:26;;;;;;;11.80;4.88;;;;;;;18.66;69.26;101636.50;5013251;28;20666;-37
2022/10/28 05:47:51;;;;;;;11.88;5.20;;;;;;;18.69;69.21;101627.66;5013488;28;20057;-42
2022/10/28 05:50:19;;;;;;;15.40;5.32;;;;;;;18.67;69.22;101625.03;5011850;28;20026;-38
2022/10/28 05:52:49;;;;;;;12.10;5.10;;;;;;;18.76;68.98;101627.59;5013002;28;20017;-40
2022/10/28 05:55:18;;;;;;;11.70;4.82;;;;;;;18.72;68.93;101631.19;5012311;28;20095;-41
2022/10/28 05:57:44;;;;;;;14.27;5.20;;;;;;;18.63;69.22;101625.94;5012944;28;20029;-41
2022/10/28 06:00:10;;;;;;;12.18;5.07;;;;;;;18.65;69.17;101629.47;5013483;28;20116;-44
2022/10/28 06:02:35;;;;;;;13.27;4.80;;;;;;;18.70;68.88;101618.84;5015147;28;20033;-40
2022/10/28 06:05:00;;;;;;;11.80;4.85;;;;;;;18.75;69.13;101622.34;5015977;28;20025;-39
2022/10/28 06:07:28;;;;;;;12.40;4.78;;;;;;;18.82;68.76;101613.47;5015122;28;20049;-39
2022/10/28 06:09:53;;;;;;;11.68;5.07;;;;;;;18.75;69.05;101620.56;5015388;28;20026;-40
2022/10/28 06:12:18;;;;;;;12.65;4.72;;;;;;;18.78;68.64;101615.28;5013891;28;20025;-39
2022/10/28 06:14:44;;;;;;;13.25;5.05;;;;;;;18.80;68.43;101615.22;5013710;28;20046;-41
2022/10/28 06:17:09;;;;;;;14.95;4.90;;;;;;;18.79;68.56;101618.75;5013484;28;20022;-39
2022/10/28 06:19:34;;;;;;;12.60;4.72;;;;;;;18.78;68.65;101617.91;5013881;28;20361;-40
2022/10/28 06:21:59;;;;;;;11.77;4.68;;;;;;;18.87;68.28;101609.91;5013189;28;20109;-40
2022/10/28 06:24:25;;;;;;;14.75;4.68;;;;;;;18.88;68.18;101614.28;5014422;28;20286;-40
2022/10/28 06:26:50;;;;;;;16.17;5.22;;;;;;;18.86;68.24;101612.53;5014342;28;20025;-37
2022/10/28 06:29:15;;;;;;;14.20;4.53;;;;;;;18.88;68.11;101613.41;5013864;28;20117;-43
2022/10/28 06:31:41;;;;;;;12.85;5.40;;;;;;;18.78;68.39;101617.91;5016000;28;20017;-39
2022/10/28 06:34:08;;;;;;;12.20;4.57;;;;;;;18.90;68.05;101614.28;5016506;28;20509;-39
2022/10/28 06:36:33;;;;;;;10.30;4.53;;;;;;;18.87;68.05;101612.53;5017725;28;20030;-39
2022/10/28 06:38:58;;;;;;;10.45;4.40;;;;;;;18.88;67.71;101613.41;5017389;28;20424;-39
2022/10/28 06:41:24;;;;;;;11.93;4.57;;;;;;;18.83;68.13;101621.38;5017049;28;20052;-40
2022/10/28 06:43:49;;;;;;;10.80;4.28;;;;;;;18.89;67.75;101629.25;5015957;28;20021;-39
2022/10/28 06:46:14;;;;;;;12.82;4.65;;;;;;;18.90;67.98;101624.84;5012805;28;20021;-40
2022/10/28 06:48:40;;;;;;;12.52;4.50;;;;;;;18.94;67.84;101619.53;5012924;28;20041;-40
2022/10/28 06:51:05;;;;;;;14.85;4.68;;;;;;;18.93;68.09;101617.75;5012111;28;20030;-39
2022/10/28 06:53:30;;;;;;;11.27;4.55;;;;;;;19.03;67.84;101631.75;5012360;28;20022;-39
2022/10/28 06:55:57;;;;;;;11.63;4.32;;;;;;;18.99;67.85;101628.28;5012411;28;20144;-41
2022/10/28 06:58:23;;;;;;;18.05;4.97;;;;;;;19.12;67.33;101623.75;5013536;28;20025;-39
2022/10/28 07:00:49;;;;;;;9.98;4.43;;;;;;;19.22;67.22;101638.63;5015276;28;20046;-41
2022/10/28 07:03:14;;;;;;;10.25;4.47;;;;;;;19.30;67.02;101630.63;5016109;28;20026;-39
2022/10/28 07:05:40;;;;;;;11.75;4.55;;;;;;;19.24;66.99;101631.56;5015571;28;20034;-41
2022/10/28 07:08:05;;;;;;;10.98;4.30;;;;;;;19.41;66.53;101641.94;5013171;28;20057;-39
2022/10/28 07:10:30;;;;;;;11.60;4.55;;;;;;;19.39;66.43;101647.25;5012513;28;20068;-39
2022/10/28 07:12:56;;;;;;;16.15;4.82;;;;;;;19.55;66.17;101641.84;5014564;28;20079;-38
2022/10/28 07:15:21;;;;;;;15.18;4.53;;;;;;;19.58;65.97;101640.03;5014315;28;20164;-40
2022/10/28 07:17:54;;;;;;;12.63;4.47;;;;;;;19.67;65.68;101642.56;5013272;28;20022;-42
2022/10/28 07:20:19;;;;;;;13.25;4.93;;;;;;;19.80;65.38;101640.66;5011669;28;20030;-39
2022/10/28 07:22:45;;;;;;;12.85;4.60;;;;;;;19.85;65.10;101631.78;5012815;28;20018;-42
2022/10/28 07:25:10;;;;;;;11.57;4.38;;;;;;;19.97;64.87;101625.44;5011850;28;20285;-42
2022/10/28 07:27:35;;;;;;;12.13;4.70;;;;;;;20.03;64.67;101624.47;5011911;28;20470;-41
2022/10/28 07:30:01;;;;;;;13.82;4.80;;;;;;;19.92;64.46;101632.56;5011289;28;20053;-40
2022/10/28 07:32:31;;;;;;;13.15;4.70;;;;;;;20.11;64.12;101631.44;5011902;28;20052;-40
2022/10/28 07:34:56;;;;;;;12.85;4.82;;;;;;;20.05;63.73;101644.75;5011326;28;20029;-41
2022/10/28 07:37:21;;;;;;;12.20;5.00;;;;;;;20.13;63.88;101647.25;5012499;28;20037;-39
2022/10/28 07:39:47;;;;;;;16.05;5.00;;;;;;;20.25;63.47;101649.75;5011651;28;20029;-38
2022/10/28 07:42:12;;;;;;;15.43;4.70;;;;;;;20.23;63.63;101646.25;5011306;28;20026;-39
2022/10/28 07:44:38;;;;;;;12.75;4.93;;;;;;;20.29;63.46;101655.88;5011576;28;20037;-41
2022/10/28 07:47:03;;;;;;;12.52;4.80;;;;;;;20.24;63.69;101648.03;5011983;28;20040;-40
2022/10/28 07:49:28;;;;;;;15.18;4.75;;;;;;;20.34;63.50;101656.72;5011836;28;20117;-41
2022/10/28 07:51:54;;;;;;;15.13;4.68;;;;;;;20.34;63.40;101660.25;5011288;28;20125;-40
2022/10/28 07:54:19;;;;;;;15.18;4.90;;;;;;;20.34;63.28;101662.91;5011358;28;20033;-40
2022/10/28 07:56:44;;;;;;;15.38;4.50;;;;;;;20.41;63.28;101663.69;5011764;28;20033;-42
2022/10/28 07:59:10;;;;;;;18.50;5.07;;;;;;;20.47;63.12;101663.59;5011868;28;20101;-41
2022/10/28 08:01:35;;;;;;;14.65;4.93;;;;;;;20.45;62.90;101647.72;5011941;28;20049;-37
2022/10/28 08:04:01;;;;;;;13.98;4.57;;;;;;;20.61;62.68;101656.34;5011977;28;20032;-39
2022/10/28 08:06:26;;;;;;;12.60;4.97;;;;;;;20.67;62.37;101650.06;5011348;28;20030;-41
2022/10/28 08:08:54;;;;;;;15.45;4.93;;;;;;;20.63;62.48;101658.03;5011247;28;20036;-38
2022/10/28 08:11:24;;;;;;;11.00;4.47;;;;;;;20.60;62.49;101660.75;5010724;28;20029;-39
2022/10/28 08:13:50;;;;;;;17.00;4.85;;;;;;;20.62;62.46;101656.28;5011981;28;20033;-40
2022/10/28 08:16:16;;;;;;;16.92;4.88;;;;;;;20.69;62.38;101656.19;5011387;28;20030;-39
2022/10/28 08:18:42;;;;;;;12.30;4.55;;;;;;;20.78;62.11;101659.59;5011197;28;20617;-39
2022/10/28 08:21:08;;;;;;;14.18;4.43;;;;;;;20.90;61.96;101658.50;5010633;28;20083;-40
2022/10/28 08:23:35;;;;;;;12.88;4.38;;;;;;;20.97;61.77;101647.78;5009685;28;20727;-41
2022/10/28 08:26:01;;;;;;;15.02;4.82;;;;;;;21.06;61.53;101649.38;5010499;28;20393;-40
2022/10/28 08:28:27;;;;;;;16.85;4.55;;;;;;;21.13;61.37;101658.97;5010423;28;20064;-39
2022/10/28 08:30:52;;;;;;;19.75;5.03;;;;;;;21.15;61.35;101653.66;5010290;28;20057;-38
2022/10/28 08:33:18;;;;;;;15.65;5.15;;;;;;;21.10;61.36;101659.06;5010590;28;20030;-40
2022/10/28 08:35:50;;;;;;;16.85;4.95;;;;;;;21.35;60.84;101656.84;5010569;28;20022;-40
2022/10/28 08:38:15;;;;;;;15.38;4.82;;;;;;;21.42;60.36;101656.69;5010410;28;20022;-40
2022/10/28 08:41:06;;;;;;;18.83;5.05;;;;;;;21.49;60.21;101660.09;5010247;28;20509;-39
2022/10/28 08:43:52;;;;;;;14.48;4.93;;;;;;;21.57;60.14;101650.22;5010717;28;20058;-41
2022/10/28 08:46:26;;;;;;;19.95;5.05;;;;;;;21.60;59.65;101660.78;5010680;28;20398;-39
2022/10/28 08:48:51;;;;;;;;;;;;;;;21.59;59.58;101651.06;5011568;28;20034;-40
2022/10/28 08:51:40;;;;;;;16.03;4.87;;;;;;;21.76;59.59;101650.75;5011557;28;20378;-40
2022/10/28 08:54:15;;;;;;;13.10;4.97;;;;;;;21.77;59.31;101650.69;5011984;28;20677;-40
2022/10/28 08:56:44;;;;;;;14.80;4.55;;;;;;;21.75;59.76;101652.53;5011670;28;20394;-41
2022/10/28 08:59:17;;;;;;;13.70;4.90;;;;;;;21.50;60.06;101643.28;5011765;28;20029;-39
2022/10/28 09:01:55;;;;;;;20.80;4.90;;;;;;;21.67;59.76;101640.28;5025343;23;20462;-43
2022/10/28 09:04:37;;;;;;;15.15;4.78;;;;;;;21.68;59.47;101642.94;5009931;28;20033;-44
2022/10/28 09:07:03;;;;;;;18.85;5.20;;;;;;;21.79;59.29;101656.84;5009994;28;20122;-44
2022/10/28 09:09:29;;;;;;;14.68;5.10;;;;;;;21.78;59.51;101649.78;5010345;28;20108;-46
2022/10/28 09:11:57;;;;;;;16.13;4.95;;;;;;;21.89;59.22;101648.72;5009868;28;20037;-44
2022/10/28 09:14:37;;;;;;;14.15;4.78;;;;;;;21.89;59.12;101649.59;5010088;28;20045;-47
2022/10/28 09:17:40;;;;;;;18.75;4.95;;;;;;;22.02;58.85;101644.88;5009804;28;20033;-42
2022/10/28 09:20:19;;;;;;;14.65;5.45;;;;;;;22.10;58.28;101650.91;5010062;28;20033;-44
2022/10/28 09:22:50;;;;;;;12.95;4.95;;;;;;;21.97;58.46;101660.06;5009822;28;20029;-42
2022/10/28 09:25:40;;;;;;;19.70;5.50;;;;;;;22.00;58.45;101658.22;5009899;28;20026;-48
2022/10/28 09:28:25;;;;;;;15.23;4.80;;;;;;;22.11;58.22;101656.22;5009678;28;20084;-43
2022/10/28 09:31:02;;;;;;;14.95;5.07;;;;;;;22.14;58.36;101656.13;5009473;28;20482;-45
2022/10/28 09:34:11;;;;;;;17.80;5.30;;;;;;;22.06;58.32;101649.25;5009769;28;20053;-45
2022/10/28 09:36:42;;;;;;;17.33;5.57;;;;;;;22.27;57.92;101646.97;4980260;28;20072;-43
2022/10/28 09:39:17;;;;;;;14.85;5.40;;;;;;;22.42;57.66;101652.84;5013561;28;20109;-43
2022/10/28 09:41:45;;;;;;;23.38;5.50;;;;;;;22.27;58.36;101652.28;5013184;28;20034;-43
2022/10/28 09:44:37;;;;;;;16.30;5.53;;;;;;;22.31;57.88;101652.25;5013453;28;20042;-47
2022/10/28 09:47:15;;;;;;;14.23;5.50;;;;;;;22.44;57.55;101645.75;5013559;28;20021;-45
2022/10/28 09:49:42;;;;;;;15.30;5.40;;;;;;;22.48;57.71;101653.59;5013334;28;20037;-45
2022/10/28 09:52:12;;;;;;;19.05;5.80;;;;;;;22.14;58.80;101645.50;5013302;28;20537;-44
2022/10/28 09:54:43;;;;;;;19.55;5.75;;;;;;;22.31;58.38;101638.97;5013766;28;20394;-43
2022/10/28 09:57:08;;;;;;;18.75;5.75;;;;;;;22.14;58.45;101634.03;5013869;28;20119;-44
2022/10/28 09:59:34;;;;;;;23.88;6.30;;;;;;;22.37;57.74;101636.16;5013158;28;20072;-45
2022/10/28 10:02:00;;;;;;;20.90;6.00;;;;;;;22.32;58.21;101630.09;5012660;28;20037;-46
2022/10/28 10:04:27;;;;;;;19.25;5.30;;;;;;;22.77;57.23;101620.13;5012035;28;20033;-44
2022/10/28 10:07:02;;;;;;;18.77;6.05;;;;;;;22.65;57.35;101616.84;5013087;28;20026;-43
2022/10/28 10:09:31;;;;;;;18.90;5.40;;;;;;;22.80;56.49;101622.75;5013075;28;20021;-43
2022/10/28 10:12:11;;;;;;;20.77;6.00;;;;;;;23.00;55.94;101631.94;5012809;28;20044;-44
2022/10/28 10:15:04;;;;;;;15.73;5.38;;;;;;;22.97;56.76;101649.78;5011390;28;20377;-45
2022/10/28 10:17:42;;;;;;;14.70;5.45;;;;;;;22.99;56.71;101656.78;5025025;28;20120;-46
2022/10/28 10:20:12;;;;;;;17.20;5.85;;;;;;;22.94;56.66;101660.47;5013003;28;20069;-44
2022/10/28 10:22:40;;;;;;;21.73;5.45;;;;;;;23.19;56.61;101650.94;5012533;28;20037;-43
2022/10/28 10:25:17;;;;;;;24.88;5.88;;;;;;;23.05;56.69;101658.44;5011521;28;20022;-45
2022/10/28 10:28:00;;;;;;;13.70;4.85;;;;;;;23.35;55.81;101654.09;5012435;28;20089;-44
2022/10/28 10:30:35;;;;;;;24.40;6.25;;;;;;;23.12;56.25;101665.31;5012397;28;20040;-44
2022/10/28 10:33:01;;;;;;;17.85;5.35;;;;;;;23.32;55.76;101647.06;5012510;28;20547;-44
2022/10/28 10:35:35;;;;;;;18.90;5.47;;;;;;;23.39;55.46;101643.31;5012588;28;20486;-46
2022/10/28 10:38:01;;;;;;;;;;;;;;;23.41;56.11;101654.81;5012870;28;20512;-46
2022/10/28 10:40:32;;;;;;;23.23;5.45;;;;;;;23.29;56.11;101660.44;5012113;28;20342;-45
2022/10/28 10:43:16;;;;;;;20.15;5.20;;;;;;;23.55;55.50;101653.56;5012577;28;20033;-45
2022/10/28 10:45:50;;;;;;;22.48;5.60;;;;;;;23.61;55.51;101658.69;5011734;28;20500;-45
2022/10/28 10:48:17;;;;;;;19.67;5.10;;;;;;;23.48;55.65;101666.19;5012121;28;20121;-45
2022/10/28 10:50:45;;;;;;;20.65;5.03;;;;;;;23.37;55.51;101661.09;5011827;28;20505;-42
2022/10/28 10:53:27;;;;;;;14.05;4.78;;;;;;;23.61;54.95;101653.38;5012275;28;20030;-44
2022/10/28 10:56:09;;;;;;;18.58;5.40;;;;;;;23.80;54.64;101662.59;5012269;28;20030;-43
2022/10/28 10:58:39;;;;;;;16.77;5.00;;;;;;;23.86;54.68;101655.31;5010877;28;20025;-45
2022/10/28 11:01:07;;;;;;;16.05;5.45;;;;;;;23.87;54.30;101656.19;5011903;28;20026;-44
2022/10/28 11:03:35;;;;;;;22.52;5.30;;;;;;;23.56;54.34;101647.31;5012219;28;20034;-47
2022/10/28 11:06:02;;;;;;;18.05;5.10;;;;;;;23.65;54.52;101655.94;5011828;28;20038;-48
2022/10/28 11:08:34;;;;;;;18.50;4.80;;;;;;;23.87;53.87;101669.50;5011829;28;20077;-43
2022/10/28 11:11:30;;;;;;;19.33;5.10;;;;;;;23.72;54.03;101670.81;5011494;28;20033;-43
2022/10/28 11:14:07;;;;;;;17.80;4.43;;;;;;;23.42;53.79;101667.16;5007301;28;20100;-45
2022/10/28 11:16:32;;;;;;;18.13;4.82;;;;;;;23.32;53.48;101672.78;5012052;28;20101;-45
2022/10/28 11:19:26;;;;;;;17.13;4.85;;;;;;;24.11;52.36;101668.78;5011950;28;20101;-44
2022/10/28 11:22:05;;;;;;;15.57;4.90;;;;;;;23.59;53.34;101682.72;5011399;28;20232;-45
2022/10/28 11:24:47;;;;;;;16.60;4.82;;;;;;;23.85;53.05;101688.16;5011674;28;20113;-44
2022/10/28 11:27:36;;;;;;;17.67;4.55;;;;;;;24.02;53.10;101692.16;5011621;28;20552;-42
2022/10/28 11:30:04;;;;;;;14.02;4.97;;;;;;;24.06;53.14;101700.00;5011689;28;20025;-44
2022/10/28 11:32:37;;;;;;;16.70;4.70;;;;;;;23.74;53.55;101692.06;5011331;28;20119;-45